sensor_id;sensor_type;location;lat;lon;timestamp;pressure;altitude;pressure_sealevel;temperature;humidity
59419;BME280;45224;50.904;6.038;2024-03-02T00:00:35;98169.31;;;9.00;68.07
59419;BME280;45224;50.904;6.038;2024-03-02T00:02:06;98165.03;;;8.99;68.03
59419;BME280;45224;50.904;6.038;2024-03-02T00:03:38;98157.28;;;8.99;68.62
59419;BME280;45224;50.904;6.038;2024-03-02T00:05:14;98165.94;;;8.94;68.37
59419;BME280;45224;50.904;6.038;2024-03-02T00:06:45;98159.09;;;8.93;68.53
59419;BME280;45224;50.904;6.038;2024-03-02T00:08:23;98151.22;;;9.03;68.39
59419;BME280;45224;50.904;6.038;2024-03-02T00:09:55;98157.28;;;8.99;68.54
59419;BME280;45224;50.904;6.038;2024-03-02T00:11:25;98157.28;;;8.99;68.24
59419;BME280;45224;50.904;6.038;2024-03-02T00:12:58;98160.88;;;8.91;68.55
59419;BME280;45224;50.904;6.038;2024-03-02T00:14:29;98157.41;;;8.92;68.59
59419;BME280;45224;50.904;6.038;2024-03-02T00:16:00;98162.44;;;8.99;68.54
59419;BME280;45224;50.904;6.038;2024-03-02T00:17:30;98160.72;;;8.98;68.61
59419;BME280;45224;50.904;6.038;2024-03-02T00:19:02;98163.28;;;8.99;68.62
59419;BME280;45224;50.904;6.038;2024-03-02T00:20:33;98155.50;;;9.02;68.90
59419;BME280;45224;50.904;6.038;2024-03-02T00:22:03;98152.94;;;9.01;68.46
59419;BME280;45224;50.904;6.038;2024-03-02T00:23:34;98158.31;;;8.90;69.18
59419;BME280;45224;50.904;6.038;2024-03-02T00:25:05;98171.06;;;8.96;68.86
59419;BME280;45224;50.904;6.038;2024-03-02T00:26:35;98171.78;;;9.04;68.88
59419;BME280;45224;50.904;6.038;2024-03-02T00:28:13;98167.47;;;9.05;68.98
59419;BME280;45224;50.904;6.038;2024-03-02T00:29:44;98162.31;;;9.05;69.45
59419;BME280;45224;50.904;6.038;2024-03-02T00:31:15;98159.78;;;9.03;68.96
59419;BME280;45224;50.904;6.038;2024-03-02T00:32:45;98164.16;;;9.00;68.97
59419;BME280;45224;50.904;6.038;2024-03-02T00:34:17;98163.19;;;9.04;69.18
59419;BME280;45224;50.904;6.038;2024-03-02T00:35:48;98162.31;;;9.06;69.43
59419;BME280;45224;50.904;6.038;2024-03-02T00:37:19;98155.34;;;9.10;69.02
59419;BME280;45224;50.904;6.038;2024-03-02T00:38:51;98163.81;;;9.15;68.74
59419;BME280;45224;50.904;6.038;2024-03-02T00:40:27;98160.50;;;9.10;68.99
59419;BME280;45224;50.904;6.038;2024-03-02T00:41:59;98154.50;;;9.09;69.13
59419;BME280;45224;50.904;6.038;2024-03-02T00:43:47;98153.50;;;9.15;68.76
59419;BME280;45224;50.904;6.038;2024-03-02T00:45:18;98154.31;;;9.17;69.10
59419;BME280;45224;50.904;6.038;2024-03-02T00:46:48;98152.59;;;9.19;68.98
59419;BME280;45224;50.904;6.038;2024-03-02T00:48:19;98147.41;;;9.21;68.63
59419;BME280;45224;50.904;6.038;2024-03-02T00:49:49;98155.72;;;9.34;68.46
59419;BME280;45224;50.904;6.038;2024-03-02T00:51:21;98147.28;;;9.27;68.55
59419;BME280;45224;50.904;6.038;2024-03-02T00:52:51;98162.88;;;9.21;69.08
59419;BME280;45224;50.904;6.038;2024-03-02T00:54:25;98152.47;;;9.25;68.59
59419;BME280;45224;50.904;6.038;2024-03-02T00:55:56;98153.47;;;9.18;68.73
59419;BME280;45224;50.904;6.038;2024-03-02T00:57:29;98162.00;;;9.20;68.87
59419;BME280;45224;50.904;6.038;2024-03-02T00:59:02;98155.16;;;9.19;68.48
59419;BME280;45224;50.904;6.038;2024-03-02T01:00:32;98165.44;;;9.21;68.80
59419;BME280;45224;50.904;6.038;2024-03-02T01:02:03;98167.22;;;9.17;68.93
59419;BME280;45224;50.904;6.038;2024-03-02T01:03:34;98169.00;;;9.15;69.10
59419;BME280;45224;50.904;6.038;2024-03-02T01:05:04;98173.31;;;9.14;69.38
59419;BME280;45224;50.904;6.038;2024-03-02T01:06:35;98168.13;;;9.16;69.06
59419;BME280;45224;50.904;6.038;2024-03-02T01:08:06;98177.63;;;9.14;69.46
59419;BME280;45224;50.904;6.038;2024-03-02T01:09:36;98180.13;;;9.16;69.11
59419;BME280;45224;50.904;6.038;2024-03-02T01:11:07;98169.94;;;9.11;69.14
59419;BME280;45224;50.904;6.038;2024-03-02T01:12:37;98180.91;;;9.22;69.04
59419;BME280;45224;50.904;6.038;2024-03-02T01:14:08;98190.34;;;9.22;69.17
59419;BME280;45224;50.904;6.038;2024-03-02T01:15:38;98191.25;;;9.19;69.67
59419;BME280;45224;50.904;6.038;2024-03-02T01:17:09;98191.25;;;9.19;69.43
59419;BME280;45224;50.904;6.038;2024-03-02T01:18:40;98193.13;;;9.12;70.01
59419;BME280;45224;50.904;6.038;2024-03-02T01:20:11;98193.88;;;9.18;69.91
59419;BME280;45224;50.904;6.038;2024-03-02T01:21:41;98191.31;;;9.16;70.42
59419;BME280;45224;50.904;6.038;2024-03-02T01:23:12;98205.03;;;9.18;70.58
59419;BME280;45224;50.904;6.038;2024-03-02T01:24:42;98201.75;;;9.10;71.45
59419;BME280;45224;50.904;6.038;2024-03-02T01:26:13;98217.09;;;9.16;71.22
59419;BME280;45224;50.904;6.038;2024-03-02T01:27:43;98221.38;;;9.17;71.57
59419;BME280;45224;50.904;6.038;2024-03-02T01:29:13;98222.31;;;9.13;72.20
59419;BME280;45224;50.904;6.038;2024-03-02T01:30:44;98225.25;;;8.93;73.61
59419;BME280;45224;50.904;6.038;2024-03-02T01:32:15;98243.28;;;8.94;74.53
59419;BME280;45224;50.904;6.038;2024-03-02T01:33:46;98242.25;;;9.05;74.68
59419;BME280;45224;50.904;6.038;2024-03-02T01:35:16;98256.38;;;8.84;76.78
59419;BME280;45224;50.904;6.038;2024-03-02T01:36:47;98250.44;;;8.80;78.05
59419;BME280;45224;50.904;6.038;2024-03-02T01:38:17;98246.25;;;8.73;79.11
59419;BME280;45224;50.904;6.038;2024-03-02T01:39:48;98246.53;;;8.56;80.61
59419;BME280;45224;50.904;6.038;2024-03-02T01:41:18;98247.28;;;8.63;80.40
59419;BME280;45224;50.904;6.038;2024-03-02T01:42:49;98259.31;;;8.61;80.79
59419;BME280;45224;50.904;6.038;2024-03-02T01:44:19;98252.56;;;8.55;81.34
59419;BME280;45224;50.904;6.038;2024-03-02T01:45:50;98247.53;;;8.47;81.74
59419;BME280;45224;50.904;6.038;2024-03-02T01:47:20;98244.03;;;8.51;81.53
59419;BME280;45224;50.904;6.038;2024-03-02T01:48:50;98250.88;;;8.52;81.38
59419;BME280;45224;50.904;6.038;2024-03-02T01:50:28;98247.44;;;8.53;81.29
59419;BME280;45224;50.904;6.038;2024-03-02T01:51:59;98247.50;;;8.49;81.65
59419;BME280;45224;50.904;6.038;2024-03-02T01:53:30;98248.34;;;8.49;82.15
59419;BME280;45224;50.904;6.038;2024-03-02T01:55:00;98259.59;;;8.45;82.83
59419;BME280;45224;50.904;6.038;2024-03-02T01:56:30;98256.38;;;8.28;83.14
59419;BME280;45224;50.904;6.038;2024-03-02T01:58:01;98255.81;;;8.07;84.53
59419;BME280;45224;50.904;6.038;2024-03-02T01:59:32;98251.53;;;8.09;84.77
59419;BME280;45224;50.904;6.038;2024-03-02T02:01:02;98251.44;;;8.14;85.20
59419;BME280;45224;50.904;6.038;2024-03-02T02:02:33;98252.25;;;8.17;86.95
59419;BME280;45224;50.904;6.038;2024-03-02T02:04:03;98253.06;;;8.19;87.13
59419;BME280;45224;50.904;6.038;2024-03-02T02:05:34;98266.00;;;8.16;88.58
59419;BME280;45224;50.904;6.038;2024-03-02T02:07:05;98268.63;;;8.12;89.40
59419;BME280;45224;50.904;6.038;2024-03-02T02:08:37;98267.00;;;8.06;90.21
59419;BME280;45224;50.904;6.038;2024-03-02T02:10:09;98258.41;;;8.05;90.50
59419;BME280;45224;50.904;6.038;2024-03-02T02:11:39;98243.81;;;8.09;90.10
59419;BME280;45224;50.904;6.038;2024-03-02T02:13:10;98249.91;;;8.02;91.42
59419;BME280;45224;50.904;6.038;2024-03-02T02:14:47;98246.50;;;8.00;91.74
59419;BME280;45224;50.904;6.038;2024-03-02T02:16:18;98254.25;;;7.97;91.68
59419;BME280;45224;50.904;6.038;2024-03-02T02:17:49;98250.19;;;7.80;93.15
59419;BME280;45224;50.904;6.038;2024-03-02T02:19:19;98253.59;;;7.82;92.83
59419;BME280;45224;50.904;6.038;2024-03-02T02:20:50;98253.59;;;7.82;93.35
59419;BME280;45224;50.904;6.038;2024-03-02T02:22:20;98253.75;;;7.70;94.06
59419;BME280;45224;50.904;6.038;2024-03-02T02:23:51;98248.78;;;7.58;95.25
59419;BME280;45224;50.904;6.038;2024-03-02T02:25:21;98236.75;;;7.58;94.91
59419;BME280;45224;50.904;6.038;2024-03-02T02:26:51;98236.72;;;7.63;94.30
59419;BME280;45224;50.904;6.038;2024-03-02T02:28:22;98237.59;;;7.60;95.42
59419;BME280;45224;50.904;6.038;2024-03-02T02:29:52;98242.84;;;7.54;96.43
59419;BME280;45224;50.904;6.038;2024-03-02T02:31:23;98241.28;;;7.38;97.97
59419;BME280;45224;50.904;6.038;2024-03-02T02:32:53;98237.81;;;7.42;98.14
59419;BME280;45224;50.904;6.038;2024-03-02T02:34:24;98234.56;;;7.29;99.87
59419;BME280;45224;50.904;6.038;2024-03-02T02:35:54;98233.69;;;7.31;99.66
59419;BME280;45224;50.904;6.038;2024-03-02T02:37:25;98231.03;;;7.35;100.00
59419;BME280;45224;50.904;6.038;2024-03-02T02:38:55;98228.59;;;7.27;100.00
59419;BME280;45224;50.904;6.038;2024-03-02T02:40:26;98226.00;;;7.27;100.00
59419;BME280;45224;50.904;6.038;2024-03-02T02:41:57;98228.44;;;7.36;100.00
59419;BME280;45224;50.904;6.038;2024-03-02T02:43:27;98223.47;;;7.24;100.00
59419;BME280;45224;50.904;6.038;2024-03-02T02:44:58;98226.09;;;7.19;100.00
59419;BME280;45224;50.904;6.038;2024-03-02T02:46:28;98223.53;;;7.18;100.00
59419;BME280;45224;50.904;6.038;2024-03-02T02:47:59;98223.50;;;7.22;100.00
59419;BME280;45224;50.904;6.038;2024-03-02T02:49:31;98220.03;;;7.23;100.00
59419;BME280;45224;50.904;6.038;2024-03-02T02:51:01;98223.50;;;7.21;100.00
59419;BME280;45224;50.904;6.038;2024-03-02T02:52:37;98220.28;;;7.02;100.00
59419;BME280;45224;50.904;6.038;2024-03-02T02:54:09;98221.84;;;7.17;100.00
59419;BME280;45224;50.904;6.038;2024-03-02T02:55:40;98221.75;;;7.23;100.00
59419;BME280;45224;50.904;6.038;2024-03-02T02:57:10;98221.84;;;7.17;100.00
59419;BME280;45224;50.904;6.038;2024-03-02T02:58:41;98214.09;;;7.18;100.00
59419;BME280;45224;50.904;6.038;2024-03-02T03:00:15;98210.69;;;7.19;100.00
59419;BME280;45224;50.904;6.038;2024-03-02T03:01:47;98207.28;;;7.17;100.00
59419;BME280;45224;50.904;6.038;2024-03-02T03:03:18;98208.13;;;7.16;100.00
59419;BME280;45224;50.904;6.038;2024-03-02T03:04:48;98204.63;;;7.22;100.00
59419;BME280;45224;50.904;6.038;2024-03-02T03:06:18;98216.59;;;7.26;100.00
59419;BME280;45224;50.904;6.038;2024-03-02T03:07:49;98201.16;;;7.26;100.00
59419;BME280;45224;50.904;6.038;2024-03-02T03:09:20;98202.84;;;7.30;100.00
59419;BME280;45224;50.904;6.038;2024-03-02T03:10:51;98198.59;;;7.26;100.00
59419;BME280;45224;50.904;6.038;2024-03-02T03:12:21;98202.06;;;7.22;100.00
59419;BME280;45224;50.904;6.038;2024-03-02T03:13:53;98196.84;;;7.29;100.00
59419;BME280;45224;50.904;6.038;2024-03-02T03:15:24;98189.97;;;7.31;100.00
59419;BME280;45224;50.904;6.038;2024-03-02T03:16:55;98194.28;;;7.28;100.00
59419;BME280;45224;50.904;6.038;2024-03-02T03:18:26;98196.00;;;7.27;100.00
59419;BME280;45224;50.904;6.038;2024-03-02T03:19:56;98202.84;;;7.30;100.00
59419;BME280;45224;50.904;6.038;2024-03-02T03:21:27;98202.91;;;7.25;100.00
59419;BME280;45224;50.904;6.038;2024-03-02T03:22:57;98205.41;;;7.30;100.00
59419;BME280;45224;50.904;6.038;2024-03-02T03:24:28;98199.31;;;7.37;100.00
59419;BME280;45224;50.904;6.038;2024-03-02T03:25:58;98199.31;;;7.37;100.00
59419;BME280;45224;50.904;6.038;2024-03-02T03:27:29;98194.16;;;7.37;100.00
59419;BME280;45224;50.904;6.038;2024-03-02T03:28:59;98191.63;;;7.36;100.00
59419;BME280;45224;50.904;6.038;2024-03-02T03:30:29;98194.13;;;7.40;100.00
59419;BME280;45224;50.904;6.038;2024-03-02T03:32:00;98192.41;;;7.41;100.00
59419;BME280;45224;50.904;6.038;2024-03-02T03:33:30;98183.81;;;7.43;100.00
59419;BME280;45224;50.904;6.038;2024-03-02T03:35:01;98177.00;;;7.39;100.00
59419;BME280;45224;50.904;6.038;2024-03-02T03:36:31;98178.66;;;7.43;100.00
59419;BME280;45224;50.904;6.038;2024-03-02T03:38:02;98189.84;;;7.41;100.00
59419;BME280;45224;50.904;6.038;2024-03-02T03:39:34;98183.81;;;7.43;100.00
59419;BME280;45224;50.904;6.038;2024-03-02T03:41:05;98177.84;;;7.43;100.00
59419;BME280;45224;50.904;6.038;2024-03-02T03:42:36;98186.28;;;7.51;100.00
59419;BME280;45224;50.904;6.038;2024-03-02T03:44:07;98187.13;;;7.52;100.00
59419;BME280;45224;50.904;6.038;2024-03-02T03:45:37;98183.78;;;7.46;100.00
59419;BME280;45224;50.904;6.038;2024-03-02T03:47:08;98188.91;;;7.46;100.00
59419;BME280;45224;50.904;6.038;2024-03-02T03:48:38;98194.88;;;7.50;100.00
59419;BME280;45224;50.904;6.038;2024-03-02T03:50:09;98196.56;;;7.51;100.00
59419;BME280;45224;50.904;6.038;2024-03-02T03:51:39;98199.13;;;7.53;100.00
59419;BME280;45224;50.904;6.038;2024-03-02T03:53:10;98198.25;;;7.54;100.00
59419;BME280;45224;50.904;6.038;2024-03-02T03:54:40;98202.53;;;7.55;100.00
59419;BME280;45224;50.904;6.038;2024-03-02T03:56:13;98201.69;;;7.54;100.00
59419;BME280;45224;50.904;6.038;2024-03-02T03:57:43;98206.84;;;7.53;100.00
59419;BME280;45224;50.904;6.038;2024-03-02T03:59:14;98201.72;;;7.51;100.00
59419;BME280;45224;50.904;6.038;2024-03-02T04:00:44;98201.75;;;7.49;100.00
59419;BME280;45224;50.904;6.038;2024-03-02T04:02:14;98200.81;;;7.54;100.00
59419;BME280;45224;50.904;6.038;2024-03-02T04:03:45;98198.22;;;7.55;100.00
59419;BME280;45224;50.904;6.038;2024-03-02T04:05:15;98202.56;;;7.52;100.00
59419;BME280;45224;50.904;6.038;2024-03-02T04:06:46;98205.06;;;7.58;100.00
59419;BME280;45224;50.904;6.038;2024-03-02T04:08:16;98208.50;;;7.57;100.00
59419;BME280;45224;50.904;6.038;2024-03-02T04:09:47;98214.50;;;7.56;100.00
59419;BME280;45224;50.904;6.038;2024-03-02T04:11:17;98215.38;;;7.56;100.00
59419;BME280;45224;50.904;6.038;2024-03-02T04:12:49;98215.28;;;7.62;100.00
59419;BME280;45224;50.904;6.038;2024-03-02T04:14:19;98215.34;;;7.58;100.00
59419;BME280;45224;50.904;6.038;2024-03-02T04:15:50;98210.19;;;7.58;100.00
59419;BME280;45224;50.904;6.038;2024-03-02T04:17:20;98211.03;;;7.60;100.00
59419;BME280;45224;50.904;6.038;2024-03-02T04:18:50;98205.94;;;7.54;100.00
59419;BME280;45224;50.904;6.038;2024-03-02T04:20:21;98197.50;;;7.45;100.00
59419;BME280;45224;50.904;6.038;2024-03-02T04:21:51;98201.69;;;7.53;100.00
59419;BME280;45224;50.904;6.038;2024-03-02T04:23:22;98212.81;;;7.55;100.00
59419;BME280;45224;50.904;6.038;2024-03-02T04:24:52;98207.69;;;7.53;100.00
59419;BME280;45224;50.904;6.038;2024-03-02T04:26:23;98199.13;;;7.53;100.00
59419;BME280;45224;50.904;6.038;2024-03-02T04:27:53;98189.66;;;7.56;100.00
59419;BME280;45224;50.904;6.038;2024-03-02T04:29:24;98196.47;;;7.57;100.00
59419;BME280;45224;50.904;6.038;2024-03-02T04:30:54;98211.09;;;7.54;100.00
59419;BME280;45224;50.904;6.038;2024-03-02T04:32:28;98209.44;;;7.49;100.00
59419;BME280;45224;50.904;6.038;2024-03-02T04:33:59;98205.00;;;7.62;100.00
59419;BME280;45224;50.904;6.038;2024-03-02T04:35:29;98217.13;;;7.53;100.00
59419;BME280;45224;50.904;6.038;2024-03-02T04:36:59;98211.91;;;7.56;100.00
59419;BME280;45224;50.904;6.038;2024-03-02T04:38:30;98208.53;;;7.54;100.00
59419;BME280;45224;50.904;6.038;2024-03-02T04:40:02;98208.50;;;7.57;100.00
59419;BME280;45224;50.904;6.038;2024-03-02T04:41:33;98205.03;;;7.59;99.71
59419;BME280;45224;50.904;6.038;2024-03-02T04:43:03;98217.84;;;7.64;99.38
59419;BME280;45224;50.904;6.038;2024-03-02T04:44:34;98219.59;;;7.60;99.68
59419;BME280;45224;50.904;6.038;2024-03-02T04:46:05;98218.75;;;7.60;99.09
59419;BME280;45224;50.904;6.038;2024-03-02T04:47:36;98216.16;;;7.60;98.84
59419;BME280;45224;50.904;6.038;2024-03-02T04:49:07;98214.50;;;7.56;98.36
59419;BME280;45224;50.904;6.038;2024-03-02T04:50:38;98211.88;;;7.60;97.97
59419;BME280;45224;50.904;6.038;2024-03-02T04:52:08;98215.31;;;7.61;98.10
59419;BME280;45224;50.904;6.038;2024-03-02T04:53:39;98216.13;;;7.63;98.01
59419;BME280;45224;50.904;6.038;2024-03-02T04:55:09;98221.25;;;7.64;98.14
59419;BME280;45224;50.904;6.038;2024-03-02T04:56:40;98219.47;;;7.68;97.93
59419;BME280;45224;50.904;6.038;2024-03-02T04:58:14;98219.47;;;7.68;98.03
59419;BME280;45224;50.904;6.038;2024-03-02T04:59:45;98221.22;;;7.67;97.34
59419;BME280;45224;50.904;6.038;2024-03-02T05:01:15;98225.56;;;7.64;97.30
59419;BME280;45224;50.904;6.038;2024-03-02T05:02:47;98227.19;;;7.70;96.95
59419;BME280;45224;50.904;6.038;2024-03-02T05:04:17;98222.88;;;7.70;95.89
59419;BME280;45224;50.904;6.038;2024-03-02T05:05:48;98226.34;;;7.69;95.87
59419;BME280;45224;50.904;6.038;2024-03-02T05:07:18;98229.72;;;7.71;95.36
59419;BME280;45224;50.904;6.038;2024-03-02T05:08:49;98212.63;;;7.67;94.52
59419;BME280;45224;50.904;6.038;2024-03-02T05:10:19;98225.50;;;7.67;93.80
59419;BME280;45224;50.904;6.038;2024-03-02T05:11:50;98229.78;;;7.68;93.10
59419;BME280;45224;50.904;6.038;2024-03-02T05:13:45;98231.53;;;7.66;93.51
59419;BME280;45224;50.904;6.038;2024-03-02T05:15:16;98223.81;;;7.66;92.53
59419;BME280;45224;50.904;6.038;2024-03-02T05:16:47;98230.69;;;7.64;91.99
59419;BME280;45224;50.904;6.038;2024-03-02T05:18:17;98231.53;;;7.66;92.48
59419;BME280;45224;50.904;6.038;2024-03-02T05:19:48;98233.31;;;7.61;91.95
59419;BME280;45224;50.904;6.038;2024-03-02T05:21:18;98234.97;;;7.65;91.75
59419;BME280;45224;50.904;6.038;2024-03-02T05:22:48;98226.44;;;7.60;91.52
59419;BME280;45224;50.904;6.038;2024-03-02T05:24:19;98228.16;;;7.61;91.02
59419;BME280;45224;50.904;6.038;2024-03-02T05:25:50;98235.13;;;7.53;90.31
59419;BME280;45224;50.904;6.038;2024-03-02T05:27:20;98231.75;;;7.47;90.55
59419;BME280;45224;50.904;6.038;2024-03-02T05:28:51;98235.06;;;7.56;90.24
59419;BME280;45224;50.904;6.038;2024-03-02T05:30:23;98230.91;;;7.47;90.18
59419;BME280;45224;50.904;6.038;2024-03-02T05:31:56;98231.66;;;7.54;87.92
59419;BME280;45224;50.904;6.038;2024-03-02T05:33:26;98231.59;;;7.60;87.78
59419;BME280;45224;50.904;6.038;2024-03-02T05:34:57;98248.88;;;7.48;87.86
59419;BME280;45224;50.904;6.038;2024-03-02T05:36:27;98236.03;;;7.48;87.93
59419;BME280;45224;50.904;6.038;2024-03-02T05:37:58;98248.84;;;7.52;88.15
59419;BME280;45224;50.904;6.038;2024-03-02T05:39:29;98246.25;;;7.55;88.20
59419;BME280;45224;50.904;6.038;2024-03-02T05:40:59;98246.25;;;7.55;87.82
59419;BME280;45224;50.904;6.038;2024-03-02T05:42:30;98250.47;;;7.59;88.04
59419;BME280;45224;50.904;6.038;2024-03-02T05:44:00;98249.66;;;7.55;87.42
59419;BME280;45224;50.904;6.038;2024-03-02T05:45:31;98247.91;;;7.57;88.08
59419;BME280;45224;50.904;6.038;2024-03-02T05:47:02;98248.84;;;7.52;87.67
59419;BME280;45224;50.904;6.038;2024-03-02T05:48:33;98247.09;;;7.54;87.91
59419;BME280;45224;50.904;6.038;2024-03-02T05:50:04;98248.91;;;7.45;87.78
59419;BME280;45224;50.904;6.038;2024-03-02T05:51:34;98241.13;;;7.52;88.06
59419;BME280;45224;50.904;6.038;2024-03-02T05:53:05;98241.13;;;7.53;87.44
59419;BME280;45224;50.904;6.038;2024-03-02T05:54:35;98245.47;;;7.49;87.90
59419;BME280;45224;50.904;6.038;2024-03-02T05:56:06;98243.66;;;7.55;87.10
59419;BME280;45224;50.904;6.038;2024-03-02T05:57:36;98238.53;;;7.55;86.83
59419;BME280;45224;50.904;6.038;2024-03-02T05:59:25;98242.84;;;7.54;86.95
59419;BME280;45224;50.904;6.038;2024-03-02T06:00:56;98246.25;;;7.55;86.97
59419;BME280;45224;50.904;6.038;2024-03-02T06:02:27;98255.59;;;7.59;86.77
59419;BME280;45224;50.904;6.038;2024-03-02T06:03:57;98260.78;;;7.56;86.61
59419;BME280;45224;50.904;6.038;2024-03-02T06:05:29;98252.22;;;7.57;87.24
59419;BME280;45224;50.904;6.038;2024-03-02T06:06:59;98255.56;;;7.62;86.64
59419;BME280;45224;50.904;6.038;2024-03-02T06:08:29;98261.63;;;7.59;86.88
59419;BME280;45224;50.904;6.038;2024-03-02T06:10:00;98265.09;;;7.55;86.53
59419;BME280;45224;50.904;6.038;2024-03-02T06:11:30;98260.78;;;7.56;86.36
59419;BME280;45224;50.904;6.038;2024-03-02T06:13:01;98258.19;;;7.59;86.09
59419;BME280;45224;50.904;6.038;2024-03-02T06:14:31;98263.28;;;7.63;86.03
59419;BME280;45224;50.904;6.038;2024-03-02T06:16:02;98259.09;;;7.55;86.40
59419;BME280;45224;50.904;6.038;2024-03-02T06:17:32;98263.31;;;7.60;86.68
59419;BME280;45224;50.904;6.038;2024-03-02T06:19:03;98260.78;;;7.56;86.84
59419;BME280;45224;50.904;6.038;2024-03-02T06:20:33;98262.53;;;7.54;86.07
59419;BME280;45224;50.904;6.038;2024-03-02T06:22:04;98267.63;;;7.57;86.15
59419;BME280;45224;50.904;6.038;2024-03-02T06:23:35;98265.91;;;7.59;86.39
59419;BME280;45224;50.904;6.038;2024-03-02T06:25:06;98267.59;;;7.60;86.40
59419;BME280;45224;50.904;6.038;2024-03-02T06:26:37;98271.91;;;7.59;86.08
59419;BME280;45224;50.904;6.038;2024-03-02T06:28:07;98270.16;;;7.61;86.34
59419;BME280;45224;50.904;6.038;2024-03-02T06:29:38;98264.91;;;7.71;85.26
59419;BME280;45224;50.904;6.038;2024-03-02T06:31:08;98269.19;;;7.70;85.79
59419;BME280;45224;50.904;6.038;2024-03-02T06:32:39;98270.06;;;7.69;85.99
59419;BME280;45224;50.904;6.038;2024-03-02T06:34:09;98269.22;;;7.67;86.14
59419;BME280;45224;50.904;6.038;2024-03-02T06:35:40;98266.63;;;7.68;86.16
59419;BME280;45224;50.904;6.038;2024-03-02T06:37:11;98275.19;;;7.71;85.93
59419;BME280;45224;50.904;6.038;2024-03-02T06:38:41;98276.88;;;7.72;85.81
59419;BME280;45224;50.904;6.038;2024-03-02T06:40:12;98276.03;;;7.71;86.12
59419;BME280;45224;50.904;6.038;2024-03-02T06:41:42;98283.78;;;7.70;85.70
59419;BME280;45224;50.904;6.038;2024-03-02T06:43:13;98298.41;;;7.64;85.46
59419;BME280;45224;50.904;6.038;2024-03-02T06:44:43;98288.94;;;7.68;85.64
59419;BME280;45224;50.904;6.038;2024-03-02T06:46:14;98291.63;;;7.59;85.42
59419;BME280;45224;50.904;6.038;2024-03-02T06:47:45;98290.72;;;7.64;84.80
59419;BME280;45224;50.904;6.038;2024-03-02T06:49:15;98293.31;;;7.60;84.62
59419;BME280;45224;50.904;6.038;2024-03-02T06:50:49;98288.13;;;7.64;84.75
59419;BME280;45224;50.904;6.038;2024-03-02T06:52:19;98292.47;;;7.62;84.71
59419;BME280;45224;50.904;6.038;2024-03-02T06:53:51;98283.00;;;7.63;84.64
59419;BME280;45224;50.904;6.038;2024-03-02T06:55:21;98286.50;;;7.56;84.97
59419;BME280;45224;50.904;6.038;2024-03-02T06:56:52;98284.78;;;7.58;84.90
59419;BME280;45224;50.904;6.038;2024-03-02T06:58:22;98301.00;;;7.63;85.00
59419;BME280;45224;50.904;6.038;2024-03-02T06:59:53;98297.66;;;7.58;84.59
59419;BME280;45224;50.904;6.038;2024-03-02T07:01:27;98299.41;;;7.54;84.80
59419;BME280;45224;50.904;6.038;2024-03-02T07:02:58;98301.06;;;7.57;84.66
59419;BME280;45224;50.904;6.038;2024-03-02T07:04:28;98308.84;;;7.50;84.66
59419;BME280;45224;50.904;6.038;2024-03-02T07:05:59;98307.16;;;7.53;84.70
59419;BME280;45224;50.904;6.038;2024-03-02T07:07:29;98316.69;;;7.43;85.01
59419;BME280;45224;50.904;6.038;2024-03-02T07:09:00;98313.22;;;7.45;84.76
59419;BME280;45224;50.904;6.038;2024-03-02T07:10:30;98318.31;;;7.48;84.81
59419;BME280;45224;50.904;6.038;2024-03-02T07:12:01;98319.06;;;7.58;83.53
59419;BME280;45224;50.904;6.038;2024-03-02T07:13:31;98319.13;;;7.54;83.93
59419;BME280;45224;50.904;6.038;2024-03-02T07:15:02;98314.00;;;7.50;84.03
59419;BME280;45224;50.904;6.038;2024-03-02T07:16:33;98313.97;;;7.54;83.97
59419;BME280;45224;50.904;6.038;2024-03-02T07:18:04;98319.06;;;7.58;83.82
59419;BME280;45224;50.904;6.038;2024-03-02T07:19:35;98326.81;;;7.55;84.08
59419;BME280;45224;50.904;6.038;2024-03-02T07:21:05;98323.38;;;7.56;83.71
59419;BME280;45224;50.904;6.038;2024-03-02T07:22:36;98331.06;;;7.61;84.08
59419;BME280;45224;50.904;6.038;2024-03-02T07:24:07;98335.31;;;7.62;83.67
59419;BME280;45224;50.904;6.038;2024-03-02T07:25:39;98331.16;;;7.52;84.14
59419;BME280;45224;50.904;6.038;2024-03-02T07:27:10;98339.59;;;7.63;84.17
59419;BME280;45224;50.904;6.038;2024-03-02T07:28:41;98336.16;;;7.65;84.08
59419;BME280;45224;50.904;6.038;2024-03-02T07:30:15;98336.06;;;7.70;84.16
59419;BME280;45224;50.904;6.038;2024-03-02T07:31:48;98336.03;;;7.73;83.54
59419;BME280;45224;50.904;6.038;2024-03-02T07:33:18;98334.38;;;7.71;83.92
59419;BME280;45224;50.904;6.038;2024-03-02T07:34:51;98330.91;;;7.72;83.13
59419;BME280;45224;50.904;6.038;2024-03-02T07:36:22;98334.22;;;7.81;83.86
59419;BME280;45224;50.904;6.038;2024-03-02T07:37:53;98339.28;;;7.88;83.94
59419;BME280;45224;50.904;6.038;2024-03-02T07:39:24;98342.66;;;7.93;83.67
59419;BME280;45224;50.904;6.038;2024-03-02T07:40:55;98344.34;;;7.97;83.33
59419;BME280;45224;50.904;6.038;2024-03-02T07:42:26;98346.84;;;8.01;83.03
59419;BME280;45224;50.904;6.038;2024-03-02T07:43:56;98345.00;;;8.13;82.04
59419;BME280;45224;50.904;6.038;2024-03-02T07:45:27;98340.53;;;8.26;82.54
59419;BME280;45224;50.904;6.038;2024-03-02T07:46:57;98348.00;;;8.43;80.86
59419;BME280;45224;50.904;6.038;2024-03-02T07:48:28;98340.25;;;8.47;81.71
59419;BME280;45224;50.904;6.038;2024-03-02T07:49:58;98331.44;;;8.61;81.58
59419;BME280;45224;50.904;6.038;2024-03-02T07:51:28;98332.97;;;8.74;80.43
59419;BME280;45224;50.904;6.038;2024-03-02T07:52:59;98334.44;;;8.90;81.31
59419;BME280;45224;50.904;6.038;2024-03-02T07:54:29;98341.16;;;8.99;80.43
59419;BME280;45224;50.904;6.038;2024-03-02T07:56:00;98342.63;;;9.14;80.67
59419;BME280;45224;50.904;6.038;2024-03-02T07:57:32;98342.53;;;9.19;79.33
59419;BME280;45224;50.904;6.038;2024-03-02T07:59:03;98337.28;;;9.23;78.85
59419;BME280;45224;50.904;6.038;2024-03-02T08:00:34;98341.53;;;9.27;77.90
59419;BME280;45224;50.904;6.038;2024-03-02T08:02:06;98344.88;;;9.32;78.28
59419;BME280;45224;50.904;6.038;2024-03-02T08:03:37;98349.03;;;9.40;75.85
59419;BME280;45224;50.904;6.038;2024-03-02T08:05:08;98342.00;;;9.49;76.85
59419;BME280;45224;50.904;6.038;2024-03-02T08:06:38;98351.25;;;9.60;76.30